Station Historical Data
Daily Summary for October 11, 2017 Units:  English    Metric   Both
« Previous Day
Next Day »
Daily Weekly Monthly Yearly Custom
  High: Low: Average:
Temperature: 83.5 °F 67.1 °F 73.9 °F
Dew Point: 73.3 °F 65.0 °F 69.3 °F
Humidity: 94% 67% 86%
Wind Speed: 12.0mph 0.0mph 4.3mph
Wind Gust: 12.0mph - -
Wind- - SW
Pressure: 30.09 in 30.03 in -
Precipitation: 0.01 in    
Historical Graphs
 
 
Tabular Data for October 11, 2017
Time Temperature Dew Point Pressure Wind Wind Speed Wind Gust Humidity Rainfall Rate (Hourly) Conditions
00:00 69.1 °F 66.7 °F 30.07 in SW 3.0 mph 3.0 mph 92% 0.00 in SCT
00:05 69.0 °F 66.6 °F 30.07 in SW 3.0 mph 3.0 mph 92% 0.00 in SCT
00:10 69.0 °F 66.6 °F 30.07 in SW 3.0 mph 3.0 mph 92% 0.00 in SCT
00:15 68.9 °F 66.5 °F 30.07 in SW 3.0 mph 3.0 mph 92% 0.00 in SCT
00:20 68.9 °F 66.5 °F 30.07 in SW 3.0 mph 3.0 mph 92% 0.00 in SCT
00:25 68.8 °F 66.4 °F 30.07 in SW 3.0 mph 3.0 mph 92% 0.00 in SCT
00:30 68.7 °F 66.3 °F 30.07 in SW 3.0 mph 3.0 mph 92% 0.00 in SCT
00:40 68.7 °F 66.3 °F 30.06 in SW 3.0 mph 3.0 mph 92% 0.00 in SCT
00:45 68.6 °F 66.2 °F 30.07 in SW 3.0 mph 3.0 mph 92% 0.00 in SCT
00:50 68.5 °F 66.1 °F 30.07 in SW 3.0 mph 3.0 mph 92% 0.00 in SCT
00:55 68.6 °F 66.5 °F 30.07 in SW 3.0 mph 3.0 mph 93% 0.00 in SCT
01:00 68.5 °F 66.4 °F 30.07 in SW 3.0 mph 3.0 mph 93% 0.00 in SCT
01:05 68.4 °F 66.0 °F 30.07 in SW 3.0 mph 3.0 mph 92% 0.00 in SCT
01:10 68.3 °F 65.9 °F 30.07 in SW 3.0 mph 3.0 mph 92% 0.00 in SCT
01:15 68.4 °F 66.3 °F 30.07 in SW 3.0 mph 3.0 mph 93% 0.00 in FEW
01:20 68.5 °F 66.4 °F 30.07 in SW 3.0 mph 3.0 mph 93% 0.00 in FEW
01:25 68.5 °F 66.4 °F 30.07 in SW 3.0 mph 3.0 mph 93% 0.00 in FEW
01:30 68.5 °F 66.4 °F 30.07 in SW 3.0 mph 3.0 mph 93% 0.00 in FEW
01:40 68.3 °F 66.2 °F 30.06 in SW 3.0 mph 3.0 mph 93% 0.00 in FEW
01:45 68.1 °F 66.0 °F 30.06 in SW 3.0 mph 3.0 mph 93% 0.00 in FEW
01:50 67.9 °F 65.4 °F 30.07 in SW 3.0 mph 3.0 mph 92% 0.00 in FEW
01:55 67.7 °F 65.6 °F 30.07 in SW 3.0 mph 3.0 mph 93% 0.00 in FEW
02:00 67.9 °F 65.8 °F 30.07 in SW 3.0 mph 3.0 mph 93% 0.00 in FEW
02:05 68.1 °F 66.0 °F 30.07 in SW 3.0 mph 3.0 mph 93% 0.00 in FEW
02:10 68.2 °F 66.1 °F 30.07 in SW 3.0 mph 3.0 mph 93% 0.00 in FEW
02:20 68.2 °F 66.1 °F 30.07 in SW 3.0 mph 3.0 mph 93% 0.00 in FEW
02:25 68.1 °F 66.0 °F 30.07 in SW 3.0 mph 3.0 mph 93% 0.00 in FEW
02:30 68.0 °F 65.9 °F 30.07 in SW 3.0 mph 3.0 mph 93% 0.00 in FEW
02:35 67.9 °F 65.8 °F 30.06 in SW 3.0 mph 3.0 mph 93% 0.00 in FEW
02:45 67.8 °F 65.7 °F 30.06 in SW 3.0 mph 3.0 mph 93% 0.00 in FEW
02:55 67.8 °F 65.7 °F 30.06 in SW 3.0 mph 3.0 mph 93% 0.00 in FEW
03:00 67.8 °F 65.7 °F 30.06 in SW 3.0 mph 3.0 mph 93% 0.00 in FEW
03:05 67.9 °F 65.8 °F 30.06 in SW 3.0 mph 3.0 mph 93% 0.00 in FEW
03:10 67.9 °F 65.8 °F 30.06 in SW 3.0 mph 3.0 mph 93% 0.00 in FEW
03:15 67.9 °F 65.8 °F 30.06 in SW 3.0 mph 3.0 mph 93% 0.00 in CLR
03:20 67.9 °F 65.8 °F 30.06 in SW 3.0 mph 3.0 mph 93% 0.00 in CLR
03:35 68.2 °F 66.4 °F 30.05 in Calm     94% 0.00 in CLR
03:45 68.3 °F 66.5 °F 30.05 in Calm     94% 0.00 in CLR
03:55 67.9 °F 65.8 °F 30.05 in Calm     93% 0.00 in CLR
04:00 67.8 °F 65.7 °F 30.05 in Calm     93% 0.00 in CLR
04:05 68.0 °F 66.2 °F 30.05 in Calm     94% 0.00 in CLR
04:10 67.9 °F 65.8 °F 30.05 in Calm     93% 0.00 in CLR
04:15 67.7 °F 65.6 °F 30.05 in Calm     93% 0.00 in FEW
04:20 67.5 °F 65.4 °F 30.05 in Calm     93% 0.00 in FEW
04:25 67.3 °F 65.2 °F 30.04 in Calm     93% 0.00 in FEW
04:30 67.2 °F 65.1 °F 30.05 in Calm     93% 0.00 in FEW
04:35 67.1 °F 65.0 °F 30.04 in Calm     93% 0.00 in FEW
04:40 67.1 °F 65.0 °F 30.04 in Calm     93% 0.00 in FEW
04:45 67.2 °F 65.1 °F 30.04 in Calm     93% 0.00 in FEW
04:50 67.3 °F 65.5 °F 30.04 in Calm     94% 0.00 in FEW
04:55 67.4 °F 65.6 °F 30.05 in Calm     94% 0.00 in FEW
05:00 67.5 °F 65.7 °F 30.05 in Calm     94% 0.00 in FEW
05:05 67.7 °F 65.9 °F 30.05 in Calm     94% 0.00 in FEW
05:10 67.8 °F 66.0 °F 30.05 in Calm     94% 0.00 in FEW
05:15 67.9 °F 66.1 °F 30.05 in Calm     94% 0.00 in BKN
05:20 67.9 °F 66.1 °F 30.05 in Calm     94% 0.00 in BKN
05:25 67.9 °F 66.1 °F 30.05 in Calm     94% 0.00 in BKN
05:30 67.9 °F 66.1 °F 30.05 in Calm     94% 0.00 in BKN
05:40 68.0 °F 66.2 °F 30.05 in Calm     94% 0.00 in BKN
05:45 68.0 °F 66.2 °F 30.06 in Calm     94% 0.00 in BKN
05:50 68.0 °F 66.2 °F 30.05 in Calm     94% 0.00 in BKN
05:55 68.1 °F 66.3 °F 30.06 in Calm     94% 0.00 in BKN
06:00 68.2 °F 66.4 °F 30.06 in Calm     94% 0.00 in BKN
06:05 68.3 °F 66.5 °F 30.06 in Calm     94% 0.00 in BKN
06:10 68.3 °F 66.5 °F 30.06 in Calm     94% 0.00 in BKN
06:15 68.4 °F 66.6 °F 30.06 in Calm     94% 0.00 in -RA
06:20 68.4 °F 66.6 °F 30.06 in Calm     94% 0.00 in -RA
06:25 68.5 °F 66.7 °F 30.06 in Calm     94% 0.00 in -RA
06:30 68.6 °F 66.8 °F 30.06 in Calm     94% 0.00 in -RA
06:40 68.7 °F 66.9 °F 30.06 in Calm     94% 0.00 in -RA
06:45 68.8 °F 67.0 °F 30.07 in ENE 3.0 mph 3.0 mph 94% 0.00 in OVC
06:50 68.9 °F 67.1 °F 30.07 in East 3.0 mph 3.0 mph 94% 0.00 in OVC
06:55 68.9 °F 67.1 °F 30.06 in East 3.0 mph 3.0 mph 94% 0.00 in OVC
07:00 69.0 °F 67.2 °F 30.06 in East 3.0 mph 3.0 mph 94% 0.00 in OVC
07:05 69.0 °F 67.2 °F 30.06 in East 3.0 mph 3.0 mph 94% 0.00 in OVC
07:10 69.1 °F 67.3 °F 30.06 in East 3.0 mph 3.0 mph 94% 0.00 in OVC
07:15 69.1 °F 67.3 °F 30.07 in East 3.0 mph 3.0 mph 94% 0.00 in OVC
07:20 69.2 °F 67.4 °F 30.06 in East 3.0 mph 3.0 mph 94% 0.00 in OVC
07:25 69.2 °F 67.4 °F 30.06 in East 3.0 mph 3.0 mph 94% 0.01 in RA
07:30 69.3 °F 67.5 °F 30.07 in East 3.0 mph 3.0 mph 94% 0.00 in OVC
07:35 69.3 °F 67.5 °F 30.07 in East 3.0 mph 3.0 mph 94% 0.00 in OVC
07:40 69.3 °F 67.5 °F 30.07 in East 3.0 mph 3.0 mph 94% 0.00 in OVC
07:45 69.4 °F 67.6 °F 30.07 in East 3.0 mph 3.0 mph 94% 0.00 in OVC
07:50 69.4 °F 67.6 °F 30.06 in East 3.0 mph 3.0 mph 94% 0.00 in OVC
07:55 69.4 °F 67.6 °F 30.06 in East 3.0 mph 3.0 mph 94% 0.00 in OVC
08:00 69.4 °F 67.6 °F 30.06 in East 3.0 mph 3.0 mph 94% 0.00 in OVC
08:05 69.4 °F 67.6 °F 30.06 in East 3.0 mph 3.0 mph 94% 0.00 in OVC
08:10 69.5 °F 67.7 °F 30.06 in East 3.0 mph 3.0 mph 94% 0.00 in OVC
08:15 69.5 °F 67.7 °F 30.07 in East 3.0 mph 3.0 mph 94% 0.00 in BKN
08:20 69.5 °F 67.7 °F 30.07 in East 3.0 mph 3.0 mph 94% 0.00 in BKN
08:25 69.5 °F 67.7 °F 30.07 in East 3.0 mph 3.0 mph 94% 0.00 in BKN
08:30 69.5 °F 67.7 °F 30.07 in East 3.0 mph 3.0 mph 94% 0.00 in BKN
08:35 69.6 °F 67.8 °F 30.07 in East 3.0 mph 3.0 mph 94% 0.00 in BKN
08:40 69.7 °F 67.9 °F 30.07 in East 3.0 mph 3.0 mph 94% 0.00 in BKN
08:45 69.8 °F 68.0 °F 30.07 in East 3.0 mph 3.0 mph 94% 0.00 in BKN
08:50 70.0 °F 68.2 °F 30.07 in East 3.0 mph 3.0 mph 94% 0.00 in BKN
08:55 70.3 °F 68.5 °F 30.07 in East 3.0 mph 3.0 mph 94% 0.00 in BKN
09:00 70.5 °F 68.7 °F 30.07 in East 3.0 mph 3.0 mph 94% 0.00 in BKN
09:10 70.8 °F 69.0 °F 30.08 in East 3.0 mph 3.0 mph 94% 0.00 in BKN
09:15 70.8 °F 69.0 °F 30.08 in ESE 1.0 mph 3.0 mph 94% 0.00 in BKN
09:20 70.9 °F 69.1 °F 30.08 in SE 1.0 mph 1.0 mph 94% 0.00 in BKN
09:25 71.0 °F 69.2 °F 30.08 in SE 1.0 mph 1.0 mph 94% 0.00 in BKN
09:30 71.1 °F 69.3 °F 30.08 in SE 1.0 mph 1.0 mph 94% 0.00 in BKN
09:40 71.7 °F 69.9 °F 30.08 in SE 1.0 mph 1.0 mph 94% 0.00 in BKN
09:45 72.0 °F 70.2 °F 30.08 in SE 1.0 mph 1.0 mph 94% 0.00 in BKN
09:50 72.3 °F 70.5 °F 30.08 in SE 1.0 mph 1.0 mph 94% 0.00 in BKN
09:55 72.6 °F 70.8 °F 30.08 in SE 1.0 mph 1.0 mph 94% 0.00 in BKN
10:00 73.0 °F 71.2 °F 30.08 in SE 1.0 mph 1.0 mph 94% 0.00 in BKN
10:05 73.5 °F 71.6 °F 30.08 in SE 1.0 mph 1.0 mph 94% 0.00 in BKN
10:15 74.0 °F 72.2 °F 30.08 in SSE 1.0 mph 1.0 mph 94% 0.00 in BKN
10:20 74.3 °F 72.4 °F 30.08 in South 1.0 mph 1.0 mph 94% 0.00 in BKN
10:25 74.9 °F 72.7 °F 30.08 in South 1.0 mph 1.0 mph 93% 0.00 in BKN
10:30 75.4 °F 72.9 °F 30.08 in South 1.0 mph 1.0 mph 92% 0.00 in BKN
10:40 76.4 °F 72.9 °F 30.08 in South 1.0 mph 1.0 mph 89% 0.00 in BKN
10:45 77.0 °F 73.2 °F 30.08 in South 1.0 mph 1.0 mph 88% 0.00 in BKN
10:55 78.2 °F 73.3 °F 30.08 in South 1.0 mph 1.0 mph 85% 0.00 in BKN
11:00 78.1 °F 72.9 °F 30.08 in South 1.0 mph 1.0 mph 84% 0.00 in BKN
11:05 78.0 °F 72.8 °F 30.08 in South 1.0 mph 1.0 mph 84% 0.00 in BKN
11:10 78.1 °F 72.9 °F 30.08 in South 1.0 mph 1.0 mph 84% 0.00 in BKN
11:15 78.6 °F 73.0 °F 30.08 in West 10.0 mph 10.0 mph 83% 0.00 in BKN
11:20 78.7 °F 73.1 °F 30.08 in West 10.0 mph 10.0 mph 83% 0.00 in BKN
11:25 78.4 °F 72.8 °F 30.08 in West 10.0 mph 10.0 mph 83% 0.00 in BKN
11:30 77.9 °F 72.3 °F 30.08 in West 10.0 mph 10.0 mph 83% 0.00 in BKN
11:35 77.6 °F 72.4 °F 30.09 in West 10.0 mph 10.0 mph 84% 0.00 in BKN
11:40 77.7 °F 72.1 °F 30.09 in West 10.0 mph 10.0 mph 83% 0.00 in BKN
11:45 77.8 °F 71.8 °F 30.09 in WNW 6.0 mph 10.0 mph 82% 0.00 in BKN
11:50 78.1 °F 72.9 °F 30.09 in WNW 6.0 mph 6.0 mph 84% 0.00 in BKN
11:55 78.5 °F 72.9 °F 30.09 in WNW 12.0 mph 12.0 mph 83% 0.00 in BKN
12:00 79.1 °F 73.2 °F 30.08 in WNW 12.0 mph 12.0 mph 82% 0.00 in BKN
12:05 79.4 °F 72.7 °F 30.08 in WNW 12.0 mph 12.0 mph 80% 0.00 in BKN
12:10 79.4 °F 72.7 °F 30.08 in WNW 12.0 mph 12.0 mph 80% 0.00 in BKN
12:15 79.2 °F 72.5 °F 30.08 in WNW 9.0 mph 12.0 mph 80% 0.00 in BKN
12:20 79.1 °F 72.4 °F 30.08 in WNW 9.0 mph 9.0 mph 80% 0.00 in BKN
12:25 79.5 °F 72.7 °F 30.08 in WNW 9.0 mph 9.0 mph 80% 0.00 in BKN
12:30 79.9 °F 72.4 °F 30.08 in WNW 9.0 mph 9.0 mph 78% 0.00 in BKN
12:35 80.3 °F 72.8 °F 30.08 in WNW 9.0 mph 9.0 mph 78% 0.00 in BKN
12:40 80.5 °F 73.0 °F 30.08 in WNW 9.0 mph 9.0 mph 78% 0.00 in BKN
12:45 80.5 °F 72.6 °F 30.08 in WNW 9.0 mph 9.0 mph 77% 0.00 in BKN
12:50 80.6 °F 72.7 °F 30.08 in WNW 9.0 mph 9.0 mph 77% 0.00 in BKN
12:55 80.7 °F 72.8 °F 30.08 in WNW 9.0 mph 9.0 mph 77% 0.00 in BKN
13:05 80.0 °F 72.5 °F 30.08 in WNW 9.0 mph 9.0 mph 78% 0.00 in BKN
13:10 79.9 °F 71.7 °F 30.08 in WNW 9.0 mph 9.0 mph 76% 0.00 in BKN
13:15 79.9 °F 71.7 °F 30.08 in WNW 9.0 mph 9.0 mph 76% 0.00 in BKN
13:20 79.8 °F 71.9 °F 30.08 in WNW 9.0 mph 9.0 mph 77% 0.00 in BKN
13:25 79.6 °F 71.8 °F 30.08 in WNW 9.0 mph 9.0 mph 77% 0.00 in BKN
13:30 79.6 °F 71.4 °F 30.08 in WNW 9.0 mph 9.0 mph 76% 0.00 in BKN
13:35 79.9 °F 72.4 °F 30.07 in WNW 9.0 mph 9.0 mph 78% 0.00 in BKN
13:40 80.1 °F 72.2 °F 30.07 in WNW 9.0 mph 9.0 mph 77% 0.00 in BKN
13:45 80.2 °F 72.0 °F 30.07 in WNW 9.0 mph 9.0 mph 76% 0.00 in BKN
13:50 80.5 °F 71.1 °F 30.07 in WNW 9.0 mph 9.0 mph 73% 0.00 in BKN
13:55 81.2 °F 71.3 °F 30.07 in WNW 9.0 mph 9.0 mph 72% 0.00 in BKN
14:00 81.6 °F 71.7 °F 30.07 in WNW 9.0 mph 9.0 mph 72% 0.00 in BKN
14:05 81.3 °F 72.2 °F 30.07 in WNW 9.0 mph 9.0 mph 74% 0.00 in BKN
14:10 81.6 °F 72.1 °F 30.07 in WNW 9.0 mph 9.0 mph 73% 0.00 in BKN
14:15 81.7 °F 71.8 °F 30.06 in WNW 8.0 mph 9.0 mph 72% 0.00 in BKN
14:20 81.8 °F 71.5 °F 30.06 in WNW 8.0 mph 8.0 mph 71% 0.00 in BKN
14:30 82.7 °F 71.9 °F 30.06 in WNW 8.0 mph 8.0 mph 70% 0.00 in BKN
14:35 82.9 °F 71.7 °F 30.06 in WNW 8.0 mph 8.0 mph 69% 0.00 in BKN
14:40 83.0 °F 71.3 °F 30.05 in WNW 8.0 mph 8.0 mph 68% 0.00 in BKN
14:45 83.1 °F 71.5 °F 30.05 in WNW 8.0 mph 8.0 mph 68% 0.00 in BKN
14:50 83.5 °F 71.8 °F 30.05 in WNW 8.0 mph 8.0 mph 68% 0.00 in BKN
14:55 83.2 °F 71.5 °F 30.05 in WNW 8.0 mph 8.0 mph 68% 0.00 in BKN
15:00 82.4 °F 72.1 °F 30.05 in WNW 8.0 mph 8.0 mph 71% 0.00 in BKN
15:05 81.9 °F 72.0 °F 30.05 in WNW 8.0 mph 8.0 mph 72% 0.00 in BKN
15:10 81.7 °F 71.8 °F 30.05 in WNW 8.0 mph 8.0 mph 72% 0.00 in BKN
15:15 81.8 °F 72.3 °F 30.05 in WNW 7.0 mph 8.0 mph 73% 0.00 in BKN
15:25 81.9 °F 71.6 °F 30.05 in WNW 7.0 mph 7.0 mph 71% 0.00 in BKN
15:30 81.6 °F 71.3 °F 30.04 in WNW 7.0 mph 7.0 mph 71% 0.00 in BKN
15:35 81.6 °F 70.4 °F 30.04 in WNW 7.0 mph 7.0 mph 69% 0.00 in BKN
15:40 81.7 °F 70.5 °F 30.04 in WNW 7.0 mph 7.0 mph 69% 0.00 in BKN
15:45 81.7 °F 70.5 °F 30.04 in WNW 7.0 mph 7.0 mph 69% 0.00 in BKN
15:50 81.7 °F 70.1 °F 30.04 in WNW 7.0 mph 7.0 mph 68% 0.00 in BKN
15:55 81.7 °F 71.0 °F 30.04 in WNW 7.0 mph 7.0 mph 70% 0.00 in BKN
16:05 81.9 °F 70.3 °F 30.04 in WNW 7.0 mph 7.0 mph 68% 0.00 in BKN
16:10 82.1 °F 70.1 °F 30.04 in WNW 7.0 mph 7.0 mph 67% 0.00 in BKN
16:15 82.3 °F 71.1 °F 30.04 in WNW 9.0 mph 9.0 mph 69% 0.00 in SCT
16:20 82.2 °F 70.1 °F 30.04 in WNW 9.0 mph 9.0 mph 67% 0.00 in SCT
16:25 82.1 °F 70.5 °F 30.04 in WNW 9.0 mph 9.0 mph 68% 0.00 in SCT
16:30 82.2 °F 71.0 °F 30.04 in WNW 9.0 mph 9.0 mph 69% 0.00 in SCT
16:35 82.2 °F 71.0 °F 30.04 in WNW 9.0 mph 9.0 mph 69% 0.00 in SCT
16:40 82.2 °F 71.4 °F 30.03 in WNW 9.0 mph 9.0 mph 70% 0.00 in SCT
16:45 82.1 °F 71.8 °F 30.03 in WNW 9.0 mph 9.0 mph 71% 0.00 in SCT
16:50 82.1 °F 71.3 °F 30.03 in WNW 9.0 mph 9.0 mph 70% 0.00 in SCT
16:55 82.1 °F 71.3 °F 30.03 in WNW 9.0 mph 9.0 mph 70% 0.00 in SCT
17:05 82.1 °F 71.7 °F 30.03 in WNW 9.0 mph 9.0 mph 71% 0.00 in SCT
17:15 81.8 °F 71.9 °F 30.03 in WNW 8.0 mph 9.0 mph 72% 0.00 in SCT
17:25 81.4 °F 71.1 °F 30.03 in West 8.0 mph 8.0 mph 71% 0.00 in SCT
17:30 81.2 °F 71.3 °F 30.03 in West 8.0 mph 8.0 mph 72% 0.00 in SCT
17:35 81.0 °F 71.9 °F 30.03 in West 8.0 mph 8.0 mph 74% 0.00 in SCT
17:40 80.7 °F 71.6 °F 30.03 in West 8.0 mph 8.0 mph 74% 0.00 in SCT
17:45 80.5 °F 72.2 °F 30.03 in West 8.0 mph 8.0 mph 76% 0.00 in SCT
17:50 80.2 °F 72.0 °F 30.03 in West 8.0 mph 8.0 mph 76% 0.00 in SCT
17:55 80.0 °F 72.1 °F 30.03 in West 8.0 mph 8.0 mph 77% 0.00 in SCT
18:00 79.7 °F 71.8 °F 30.03 in West 8.0 mph 8.0 mph 77% 0.00 in SCT
18:05 79.4 °F 72.0 °F 30.03 in West 8.0 mph 8.0 mph 78% 0.00 in SCT
18:10 79.3 °F 72.2 °F 30.03 in West 8.0 mph 8.0 mph 79% 0.00 in SCT
18:15 79.0 °F 71.9 °F 30.03 in West 7.0 mph 8.0 mph 79% 0.00 in FEW
18:20 78.9 °F 71.8 °F 30.03 in West 7.0 mph 7.0 mph 79% 0.00 in FEW
18:25 78.5 °F 71.9 °F 30.03 in West 7.0 mph 7.0 mph 80% 0.00 in FEW
18:30 78.3 °F 72.0 °F 30.03 in West 7.0 mph 7.0 mph 81% 0.00 in FEW
18:40 77.7 °F 71.7 °F 30.03 in West 7.0 mph 7.0 mph 82% 0.00 in FEW
18:45 77.3 °F 71.4 °F 30.03 in West 7.0 mph 7.0 mph 82% 0.00 in FEW
18:50 77.1 °F 71.6 °F 30.03 in West 7.0 mph 7.0 mph 83% 0.00 in FEW
18:55 76.9 °F 71.7 °F 30.03 in West 7.0 mph 7.0 mph 84% 0.00 in FEW
19:00 76.7 °F 71.5 °F 30.03 in West 7.0 mph 7.0 mph 84% 0.00 in FEW
19:05 76.5 °F 71.3 °F 30.03 in West 7.0 mph 7.0 mph 84% 0.00 in FEW
19:10 76.3 °F 71.1 °F 30.04 in West 7.0 mph 7.0 mph 84% 0.00 in FEW
19:15 76.1 °F 71.3 °F 30.04 in West 6.0 mph 7.0 mph 85% 0.00 in SCT
19:20 75.9 °F 71.1 °F 30.04 in West 6.0 mph 6.0 mph 85% 0.00 in SCT
19:25 75.8 °F 71.0 °F 30.04 in West 6.0 mph 6.0 mph 85% 0.00 in SCT
19:30 75.6 °F 70.8 °F 30.04 in West 6.0 mph 6.0 mph 85% 0.00 in SCT
19:35 75.5 °F 71.0 °F 30.04 in West 6.0 mph 6.0 mph 86% 0.00 in SCT
19:40 75.3 °F 70.8 °F 30.04 in West 6.0 mph 6.0 mph 86% 0.00 in SCT
19:45 75.2 °F 70.7 °F 30.04 in West 6.0 mph 6.0 mph 86% 0.00 in SCT
19:50 75.1 °F 70.6 °F 30.04 in West 6.0 mph 6.0 mph 86% 0.00 in SCT
19:55 74.9 °F 70.4 °F 30.04 in West 6.0 mph 6.0 mph 86% 0.00 in SCT
20:00 74.8 °F 70.7 °F 30.04 in West 6.0 mph 6.0 mph 87% 0.00 in SCT
20:05 74.6 °F 70.1 °F 30.05 in West 6.0 mph 6.0 mph 86% 0.00 in SCT
20:10 74.6 °F 70.5 °F 30.04 in West 6.0 mph 6.0 mph 87% 0.00 in SCT
20:15 74.5 °F 70.4 °F 30.04 in West 5.0 mph 6.0 mph 87% 0.00 in FEW
20:20 74.4 °F 70.3 °F 30.04 in West 5.0 mph 5.0 mph 87% 0.00 in FEW
20:30 74.3 °F 70.2 °F 30.04 in West 5.0 mph 5.0 mph 87% 0.00 in FEW
20:35 74.1 °F 70.0 °F 30.04 in West 5.0 mph 5.0 mph 87% 0.00 in FEW
20:40 74.0 °F 69.9 °F 30.04 in West 5.0 mph 5.0 mph 87% 0.00 in FEW
20:45 73.8 °F 69.7 °F 30.04 in West 5.0 mph 5.0 mph 87% 0.00 in FEW
20:50 73.6 °F 69.9 °F 30.04 in West 5.0 mph 5.0 mph 88% 0.00 in FEW
20:55 73.5 °F 69.7 °F 30.04 in West 5.0 mph 5.0 mph 88% 0.00 in FEW
21:00 73.4 °F 69.6 °F 30.04 in West 5.0 mph 5.0 mph 88% 0.00 in FEW
21:05 73.2 °F 69.8 °F 30.04 in West 5.0 mph 5.0 mph 89% 0.00 in FEW
21:10 73.1 °F 69.7 °F 30.04 in West 5.0 mph 5.0 mph 89% 0.00 in FEW
21:15 73.0 °F 69.5 °F 30.05 in West 1.0 mph 5.0 mph 89% 0.00 in FEW
21:20 72.9 °F 69.8 °F 30.05 in WSW 1.0 mph 1.0 mph 90% 0.00 in FEW
21:25 72.9 °F 69.8 °F 30.05 in WSW 1.0 mph 1.0 mph 90% 0.00 in FEW
21:30 72.9 °F 69.8 °F 30.05 in WSW 1.0 mph 1.0 mph 90% 0.00 in FEW
21:35 72.8 °F 69.7 °F 30.05 in WSW 1.0 mph 1.0 mph 90% 0.00 in FEW
21:40 72.7 °F 69.6 °F 30.05 in WSW 1.0 mph 1.0 mph 90% 0.00 in FEW
21:45 72.6 °F 69.5 °F 30.05 in WSW 1.0 mph 1.0 mph 90% 0.00 in FEW
21:50 72.4 °F 69.3 °F 30.06 in WSW 1.0 mph 1.0 mph 90% 0.00 in FEW
21:55 72.3 °F 69.2 °F 30.06 in WSW 1.0 mph 1.0 mph 90% 0.00 in FEW
22:00 72.2 °F 69.1 °F 30.06 in WSW 1.0 mph 1.0 mph 90% 0.00 in FEW
22:05 72.2 °F 69.4 °F 30.06 in WSW 1.0 mph 1.0 mph 91% 0.00 in FEW
22:10 72.2 °F 69.4 °F 30.06 in WSW 1.0 mph 1.0 mph 91% 0.00 in FEW
22:15 72.1 °F 69.3 °F 30.06 in WSW 1.0 mph 1.0 mph 91% 0.00 in FEW
22:25 72.1 °F 69.3 °F 30.06 in WSW 1.0 mph 1.0 mph 91% 0.00 in FEW
22:30 72.1 °F 69.3 °F 30.06 in WSW 1.0 mph 1.0 mph 91% 0.00 in FEW
22:40 71.9 °F 69.1 °F 30.06 in WSW 1.0 mph 1.0 mph 91% 0.00 in FEW
22:45 71.8 °F 69.1 °F 30.06 in WSW 1.0 mph 1.0 mph 91% 0.00 in FEW
22:50 71.8 °F 69.0 °F 30.06 in WSW 1.0 mph 1.0 mph 91% 0.00 in FEW
22:55 71.8 °F 69.0 °F 30.06 in WSW 1.0 mph 1.0 mph 91% 0.00 in FEW
23:00 71.7 °F 68.9 °F 30.06 in WSW 1.0 mph 1.0 mph 91% 0.00 in FEW
23:10 71.6 °F 68.8 °F 30.06 in WSW 1.0 mph 1.0 mph 91% 0.00 in FEW
23:15 71.6 °F 68.8 °F 30.06 in WSW 1.0 mph 1.0 mph 91% 0.00 in FEW
23:20 71.5 °F 68.7 °F 30.06 in WSW 1.0 mph 1.0 mph 91% 0.00 in FEW
23:25 71.5 °F 69.1 °F 30.06 in WSW 1.0 mph 1.0 mph 92% 0.00 in FEW
23:30 71.5 °F 69.1 °F 30.06 in WSW 1.0 mph 1.0 mph 92% 0.00 in FEW
23:35 71.4 °F 69.0 °F 30.06 in WSW 1.0 mph 1.0 mph 92% 0.00 in FEW
23:40 71.3 °F 68.5 °F 30.06 in WSW 1.0 mph 1.0 mph 91% 0.00 in FEW
23:45 71.2 °F 68.8 °F 30.06 in WSW 1.0 mph 1.0 mph 92% 0.00 in FEW
23:50 71.2 °F 68.8 °F 30.06 in WSW 1.0 mph 1.0 mph 92% 0.00 in FEW
23:55 71.2 °F 68.8 °F 30.06 in WSW 1.0 mph 1.0 mph 92% 0.00 in FEW
Piedmont Bend
Compliments of Weather Underground - 2 mb